createdAt,value
2022-10-21T00:00:34.929Z,0
2022-10-21T00:01:51.212Z,0
2022-10-21T00:03:07.505Z,0
2022-10-21T00:04:23.789Z,0
2022-10-21T00:05:40.086Z,0
2022-10-21T00:06:56.378Z,0
2022-10-21T00:08:12.680Z,0
2022-10-21T00:09:27.989Z,0
2022-10-21T00:10:44.270Z,0
2022-10-21T00:12:00.566Z,0
2022-10-21T00:13:16.865Z,0
2022-10-21T00:14:33.150Z,0
2022-10-21T00:15:49.440Z,0
2022-10-21T00:17:05.731Z,0
2022-10-21T00:18:22.039Z,0
2022-10-21T00:19:38.326Z,0
2022-10-21T00:20:54.615Z,0
2022-10-21T00:22:10.902Z,0
2022-10-21T00:23:27.195Z,0
2022-10-21T00:24:43.498Z,0
2022-10-21T00:25:58.809Z,0
2022-10-21T00:27:15.094Z,0
2022-10-21T00:28:31.386Z,0
2022-10-21T00:29:47.677Z,0
2022-10-21T00:31:03.966Z,0
2022-10-21T00:32:20.272Z,0
2022-10-21T00:33:36.569Z,0
2022-10-21T00:34:52.849Z,0
2022-10-21T00:36:09.135Z,0
2022-10-21T00:37:25.433Z,0
2022-10-21T00:38:41.723Z,0
2022-10-21T00:39:58.016Z,0
2022-10-21T00:41:14.313Z,0
2022-10-21T00:42:29.627Z,0
2022-10-21T00:43:45.921Z,0
2022-10-21T00:45:02.206Z,0
2022-10-21T00:46:18.495Z,0
2022-10-21T00:47:34.796Z,0
2022-10-21T00:48:51.091Z,0
2022-10-21T00:50:07.372Z,0
2022-10-21T00:51:23.677Z,0
2022-10-21T00:52:39.962Z,0
2022-10-21T00:53:56.265Z,0
2022-10-21T00:55:12.540Z,0
2022-10-21T00:56:28.838Z,0
2022-10-21T00:57:45.126Z,0
2022-10-21T00:59:00.439Z,0
2022-10-21T01:00:16.743Z,0
2022-10-21T01:01:33.017Z,0
2022-10-21T01:02:49.330Z,0
2022-10-21T01:04:05.604Z,0
2022-10-21T01:05:21.878Z,0
2022-10-21T01:06:38.182Z,0
2022-10-21T01:07:54.464Z,0
2022-10-21T01:09:10.770Z,0
2022-10-21T01:10:27.054Z,0
2022-10-21T01:11:43.354Z,0
2022-10-21T01:12:59.649Z,0
2022-10-21T01:14:15.945Z,0
2022-10-21T01:15:31.235Z,0
2022-10-21T01:16:47.531Z,0
2022-10-21T01:18:03.822Z,0
2022-10-21T01:19:20.124Z,0
2022-10-21T01:20:36.406Z,0
2022-10-21T01:21:52.709Z,0
2022-10-21T01:23:08.998Z,0
2022-10-21T01:24:25.291Z,0
2022-10-21T01:25:41.583Z,0
2022-10-21T01:26:57.875Z,0
2022-10-21T01:28:14.173Z,0
2022-10-21T01:29:30.455Z,0
2022-10-21T01:30:46.748Z,0
2022-10-21T01:32:02.075Z,0
2022-10-21T01:33:18.356Z,0
2022-10-21T01:34:34.655Z,0
2022-10-21T01:35:50.950Z,0
2022-10-21T01:37:07.233Z,0
2022-10-21T01:38:23.519Z,0
2022-10-21T01:39:39.822Z,0
2022-10-21T01:40:56.122Z,0
2022-10-21T01:42:12.413Z,0
2022-10-21T01:43:28.707Z,0
2022-10-21T01:44:44.986Z,0
2022-10-21T01:46:01.292Z,0
2022-10-21T01:47:17.584Z,0
2022-10-21T01:48:32.878Z,0
2022-10-21T01:49:49.174Z,0
2022-10-21T01:51:05.480Z,0
2022-10-21T01:52:21.754Z,0
2022-10-21T01:53:38.061Z,0
2022-10-21T01:54:54.340Z,0
2022-10-21T01:56:10.632Z,0
2022-10-21T01:57:26.927Z,0
2022-10-21T01:58:43.234Z,0
2022-10-21T01:59:59.521Z,0
2022-10-21T02:01:15.817Z,0
2022-10-21T02:02:32.099Z,0
2022-10-21T02:03:48.390Z,0
2022-10-21T02:05:03.696Z,0
2022-10-21T02:06:19.993Z,0
2022-10-21T02:07:36.291Z,0
2022-10-21T02:08:52.582Z,0
2022-10-21T02:10:08.869Z,0
2022-10-21T02:11:25.167Z,0
2022-10-21T02:12:41.468Z,0
2022-10-21T02:13:57.755Z,0
2022-10-21T02:15:14.053Z,0
2022-10-21T02:16:30.330Z,0
2022-10-21T02:17:46.628Z,0
2022-10-21T02:19:02.932Z,0
2022-10-21T02:20:19.230Z,0
2022-10-21T02:21:34.538Z,0
2022-10-21T02:22:50.830Z,0
2022-10-21T02:24:07.107Z,0
2022-10-21T02:25:23.410Z,0
2022-10-21T02:26:39.692Z,0
2022-10-21T02:27:55.985Z,0
2022-10-21T02:29:12.293Z,0
2022-10-21T02:30:28.587Z,0
2022-10-21T02:31:44.861Z,0
2022-10-21T02:33:01.155Z,0
2022-10-21T02:34:17.456Z,0
2022-10-21T02:35:33.755Z,0
2022-10-21T02:36:50.034Z,0
2022-10-21T02:38:05.348Z,0
2022-10-21T02:39:21.652Z,0
2022-10-21T02:40:37.935Z,0
2022-10-21T02:41:54.235Z,0
2022-10-21T02:43:10.512Z,0
2022-10-21T02:44:26.819Z,0
2022-10-21T02:45:42.122Z,0
2022-10-21T02:46:58.427Z,0
2022-10-21T02:48:14.719Z,0
2022-10-21T02:49:31.003Z,0
2022-10-21T02:50:47.300Z,0
2022-10-21T02:52:03.590Z,0
2022-10-21T02:53:19.883Z,0
2022-10-21T02:54:36.187Z,0
2022-10-21T02:55:52.470Z,0
2022-10-21T02:57:08.766Z,0
2022-10-21T02:58:25.049Z,0
2022-10-21T02:59:41.356Z,0
2022-10-21T03:00:57.644Z,0
2022-10-21T03:02:12.956Z,0
2022-10-21T03:03:29.242Z,0
2022-10-21T03:04:45.530Z,0
2022-10-21T03:06:01.834Z,0
2022-10-21T03:07:18.129Z,0
2022-10-21T03:08:34.408Z,0
2022-10-21T03:09:50.709Z,0
2022-10-21T03:11:07.007Z,0
2022-10-21T03:12:23.291Z,0
2022-10-21T03:13:39.577Z,0
2022-10-21T03:14:55.875Z,0
2022-10-21T03:16:12.163Z,0
2022-10-21T03:17:28.461Z,0
2022-10-21T03:18:43.769Z,0
2022-10-21T03:20:00.059Z,0
2022-10-21T03:21:16.360Z,0
2022-10-21T03:22:32.647Z,0
2022-10-21T03:23:48.935Z,0
2022-10-21T03:25:05.225Z,0
2022-10-21T03:26:21.528Z,0
2022-10-21T03:27:37.811Z,0
2022-10-21T03:28:54.102Z,0
2022-10-21T03:30:10.408Z,0
2022-10-21T03:31:26.686Z,0
2022-10-21T03:32:42.985Z,0
2022-10-21T03:33:59.287Z,0
2022-10-21T03:35:14.600Z,0
2022-10-21T03:36:30.880Z,0
2022-10-21T03:37:47.171Z,0
2022-10-21T03:39:03.465Z,0
2022-10-21T03:40:19.768Z,0
2022-10-21T03:41:36.057Z,0
2022-10-21T03:42:52.337Z,0
2022-10-21T03:44:08.637Z,0
2022-10-21T03:45:24.928Z,0
2022-10-21T03:46:41.225Z,0
2022-10-21T03:47:57.525Z,0
2022-10-21T03:49:13.810Z,0
2022-10-21T03:50:30.093Z,0
2022-10-21T03:51:45.408Z,0
2022-10-21T03:53:01.704Z,0
2022-10-21T03:54:18.000Z,0
2022-10-21T03:55:34.287Z,0
2022-10-21T03:56:50.581Z,0
2022-10-21T03:58:06.862Z,0
2022-10-21T03:59:23.172Z,0
2022-10-21T04:00:39.449Z,0
2022-10-21T04:01:55.753Z,0
2022-10-21T04:03:12.039Z,0
2022-10-21T04:04:28.336Z,0
2022-10-21T04:05:44.618Z,0
2022-10-21T04:07:00.910Z,0
2022-10-21T04:08:16.223Z,0
2022-10-21T04:09:32.514Z,0
2022-10-21T04:10:48.816Z,0
2022-10-21T04:12:05.099Z,0
2022-10-21T04:13:21.394Z,0
2022-10-21T04:14:37.700Z,0
2022-10-21T04:15:53.984Z,0
2022-10-21T04:17:10.274Z,0
2022-10-21T04:18:26.580Z,0
2022-10-21T04:19:42.858Z,0
2022-10-21T04:20:59.163Z,0
2022-10-21T04:22:15.438Z,0
2022-10-21T04:23:31.743Z,0
2022-10-21T04:24:47.054Z,0
2022-10-21T04:26:03.336Z,0
2022-10-21T04:27:19.634Z,0
2022-10-21T04:28:35.923Z,0
2022-10-21T04:29:52.216Z,0
2022-10-21T04:31:08.508Z,0
2022-10-21T04:32:24.814Z,0
2022-10-21T04:33:41.090Z,0
2022-10-21T04:34:57.382Z,0
2022-10-21T04:36:13.690Z,0
2022-10-21T04:37:29.975Z,0
2022-10-21T04:38:46.259Z,0
2022-10-21T04:40:02.555Z,0
2022-10-21T04:41:17.873Z,0
2022-10-21T04:42:34.151Z,0
2022-10-21T04:43:50.451Z,0
2022-10-21T04:45:06.744Z,0
2022-10-21T04:46:23.037Z,0
2022-10-21T04:47:39.337Z,0
2022-10-21T04:48:55.618Z,0
2022-10-21T04:50:11.927Z,0
2022-10-21T04:51:28.209Z,0
2022-10-21T04:52:44.504Z,0
2022-10-21T04:54:00.785Z,0
2022-10-21T04:55:17.096Z,0
2022-10-21T04:56:33.378Z,0
2022-10-21T04:57:48.678Z,0
2022-10-21T04:59:04.989Z,0
2022-10-21T05:00:21.271Z,0
2022-10-21T05:01:37.559Z,0
2022-10-21T05:02:53.868Z,0
2022-10-21T05:04:10.162Z,0
2022-10-21T05:05:26.440Z,0
2022-10-21T05:06:42.736Z,0
2022-10-21T05:07:59.026Z,0
2022-10-21T05:09:15.329Z,0
2022-10-21T05:10:31.611Z,0
2022-10-21T05:11:47.909Z,0
2022-10-21T05:13:04.198Z,0
2022-10-21T05:14:19.513Z,0
2022-10-21T05:15:35.794Z,0
2022-10-21T05:16:52.094Z,0
2022-10-21T05:18:08.390Z,0
2022-10-21T05:19:24.680Z,0
2022-10-21T05:20:40.969Z,0
2022-10-21T05:21:57.204Z,1
2022-10-21T05:23:13.458Z,1
2022-10-21T05:24:29.701Z,1
2022-10-21T05:25:45.944Z,1
2022-10-21T05:27:02.181Z,1
2022-10-21T05:28:18.416Z,1
2022-10-21T05:29:34.663Z,2
2022-10-21T05:30:49.913Z,2
2022-10-21T05:32:06.149Z,1
2022-10-21T05:33:22.386Z,2
2022-10-21T05:34:38.628Z,3
2022-10-21T05:35:54.867Z,9
2022-10-21T05:37:11.103Z,10
2022-10-21T05:38:27.338Z,12
2022-10-21T05:39:43.588Z,14
2022-10-21T05:40:59.825Z,17
2022-10-21T05:42:16.066Z,18
2022-10-21T05:43:32.302Z,20
2022-10-21T05:44:48.541Z,23
2022-10-21T05:46:04.770Z,27
2022-10-21T05:47:20.016Z,28
2022-10-21T05:48:36.263Z,37
2022-10-21T05:49:52.496Z,39
2022-10-21T05:51:08.744Z,44
2022-10-21T05:52:24.980Z,58
2022-10-21T05:53:41.219Z,64
2022-10-21T05:54:57.457Z,77
2022-10-21T05:56:13.701Z,81
2022-10-21T05:57:29.938Z,83
2022-10-21T05:58:46.167Z,81
2022-10-21T06:00:02.409Z,81
2022-10-21T06:01:18.659Z,82
2022-10-21T06:02:34.885Z,88
2022-10-21T06:03:50.142Z,99
2022-10-21T06:05:06.389Z,115
2022-10-21T06:06:22.628Z,134
2022-10-21T06:08:55.106Z,139
2022-10-21T06:10:11.328Z,152
2022-10-21T06:11:27.584Z,177
2022-10-21T06:12:43.823Z,198
2022-10-21T06:14:00.059Z,224
2022-10-21T06:15:16.285Z,238
2022-10-21T06:16:32.528Z,251
2022-10-21T06:17:48.771Z,260
2022-10-21T06:19:05.002Z,292
2022-10-21T06:20:20.253Z,341
2022-10-21T06:21:36.502Z,384
2022-10-21T06:22:52.739Z,412
2022-10-21T06:24:08.974Z,435
2022-10-21T06:25:25.228Z,463
2022-10-21T06:26:41.448Z,484
2022-10-21T06:27:57.700Z,511
2022-10-21T06:29:13.939Z,546
2022-10-21T06:30:30.179Z,577
2022-10-21T06:31:46.410Z,602
2022-10-21T06:33:02.641Z,635
2022-10-21T06:34:18.892Z,676
2022-10-21T06:35:35.126Z,736
2022-10-21T06:36:50.380Z,775
2022-10-21T06:38:06.628Z,794
2022-10-21T06:39:22.856Z,828
2022-10-21T06:40:39.098Z,856
2022-10-21T06:41:55.332Z,887
2022-10-21T06:43:11.564Z,901
2022-10-21T06:44:27.806Z,932
2022-10-21T06:45:44.061Z,954
2022-10-21T06:47:00.292Z,974
2022-10-21T06:48:16.530Z,1009
2022-10-21T06:49:32.772Z,1001
2022-10-21T06:50:48.997Z,1016
2022-10-21T06:52:05.243Z,1041
2022-10-21T06:53:20.495Z,1062
2022-10-21T06:54:36.747Z,1082
2022-10-21T06:55:52.982Z,1077
2022-10-21T06:57:09.214Z,1097
2022-10-21T06:58:25.451Z,1134
2022-10-21T06:59:41.692Z,1176
2022-10-21T07:00:56.952Z,1209
2022-10-21T07:02:13.196Z,1191
2022-10-21T07:03:29.424Z,1147
2022-10-21T07:04:45.674Z,1146
2022-10-21T07:06:01.906Z,1130
2022-10-21T07:07:18.146Z,1164
2022-10-21T07:08:34.383Z,1189
2022-10-21T07:09:50.616Z,1208
2022-10-21T07:11:06.865Z,1212
2022-10-21T07:12:23.106Z,1206
2022-10-21T07:13:39.339Z,1214
2022-10-21T07:14:55.584Z,1245
2022-10-21T07:16:11.824Z,1269
2022-10-21T07:17:27.070Z,1313
2022-10-21T07:18:43.308Z,1430
2022-10-21T07:19:59.540Z,1363
2022-10-21T07:21:15.785Z,1587
2022-10-21T07:22:32.021Z,1630
2022-10-21T07:23:48.258Z,1584
2022-10-21T07:25:04.512Z,1459
2022-10-21T07:26:20.747Z,1331
2022-10-21T07:27:36.983Z,1310
2022-10-21T07:28:53.222Z,1332
2022-10-21T07:30:09.447Z,1336
2022-10-21T07:31:25.688Z,1357
2022-10-21T07:32:41.932Z,1380
2022-10-21T07:33:57.194Z,1404
2022-10-21T07:35:13.436Z,1439
2022-10-21T07:36:29.659Z,1469
2022-10-21T07:37:45.909Z,1492
2022-10-21T07:39:02.150Z,1520
2022-10-21T07:40:18.380Z,1567
2022-10-21T07:41:34.619Z,1604
2022-10-21T07:42:50.856Z,1483
2022-10-21T07:44:07.097Z,1831
2022-10-21T07:45:23.340Z,2098
2022-10-21T07:46:39.583Z,1845
2022-10-21T07:47:55.821Z,1986
2022-10-21T07:49:12.060Z,1961
2022-10-21T07:50:27.309Z,2086
2022-10-21T07:51:43.549Z,2169
2022-10-21T07:52:59.790Z,2297
2022-10-21T07:54:16.033Z,2422
2022-10-21T07:55:32.271Z,2482
2022-10-21T07:56:48.500Z,2378
2022-10-21T07:58:04.741Z,2420
2022-10-21T07:59:20.986Z,2378
2022-10-21T08:00:37.223Z,2354
2022-10-21T08:01:53.449Z,2283
2022-10-21T08:03:09.701Z,2293
2022-10-21T08:04:25.928Z,2253
2022-10-21T08:05:42.178Z,2222
2022-10-21T08:06:57.434Z,2225
2022-10-21T08:08:13.655Z,2215
2022-10-21T08:09:29.909Z,2317
2022-10-21T08:10:46.143Z,2384
2022-10-21T08:12:02.368Z,2410
2022-10-21T08:13:18.620Z,2409
2022-10-21T08:14:34.856Z,2462
2022-10-21T08:15:51.095Z,2490
2022-10-21T08:17:07.330Z,2192
2022-10-21T08:18:23.565Z,1955
2022-10-21T08:19:39.802Z,1964
2022-10-21T08:20:56.058Z,2054
2022-10-21T08:22:12.288Z,2250
2022-10-21T08:23:27.536Z,2785
2022-10-21T08:24:43.778Z,2674
2022-10-21T08:26:00.016Z,2336
2022-10-21T08:27:16.264Z,2540
2022-10-21T08:28:32.490Z,2320
2022-10-21T08:29:48.743Z,2227
2022-10-21T08:31:04.963Z,12449
2022-10-21T08:32:21.219Z,7995
2022-10-21T08:33:37.451Z,4531
2022-10-21T08:34:53.696Z,6286
2022-10-21T08:36:09.936Z,8037
2022-10-21T08:37:26.169Z,11471
2022-10-21T08:38:42.408Z,26788
2022-10-21T08:39:57.661Z,6704
2022-10-21T08:41:13.893Z,18038
2022-10-21T08:42:30.146Z,15568
2022-10-21T08:43:46.381Z,4499
2022-10-21T08:45:02.604Z,18102
2022-10-21T08:46:18.854Z,11039
2022-10-21T08:47:35.083Z,4589
2022-10-21T08:48:51.329Z,4195
2022-10-21T08:50:07.575Z,1989
2022-10-21T08:51:23.807Z,10605
2022-10-21T08:52:40.039Z,9672
2022-10-21T08:53:56.280Z,9206
2022-10-21T08:55:12.530Z,5028
2022-10-21T08:56:27.776Z,16363
2022-10-21T08:57:44.015Z,8901
2022-10-21T08:59:00.253Z,16755
2022-10-21T09:00:16.490Z,12474
2022-10-21T09:01:32.723Z,13134
2022-10-21T09:02:48.971Z,19012
2022-10-21T09:04:05.212Z,18360
2022-10-21T09:05:21.440Z,9343
2022-10-21T09:06:37.690Z,8706
2022-10-21T09:07:53.922Z,10299
2022-10-21T09:09:10.168Z,18683
2022-10-21T09:10:26.402Z,19015
2022-10-21T09:11:42.626Z,26188
2022-10-21T09:12:57.881Z,14901
2022-10-21T09:14:14.125Z,15622
2022-10-21T09:15:30.373Z,7325
2022-10-21T09:16:46.596Z,12187
2022-10-21T09:18:02.841Z,6816
2022-10-21T09:19:19.090Z,6401
2022-10-21T09:20:35.317Z,7699
2022-10-21T09:21:51.565Z,3528
2022-10-21T09:23:07.795Z,9942
2022-10-21T09:24:24.044Z,20158
2022-10-21T09:25:40.268Z,76017
2022-10-21T09:26:56.512Z,24489
2022-10-21T09:28:12.751Z,27554
2022-10-21T09:29:28.013Z,12689
2022-10-21T09:30:44.233Z,80880
2022-10-21T09:32:00.479Z,67548
2022-10-21T09:33:16.722Z,22864
2022-10-21T09:34:32.964Z,13346
2022-10-21T09:35:49.192Z,10358
2022-10-21T09:37:05.442Z,11121
2022-10-21T09:38:21.666Z,28395
2022-10-21T09:39:37.917Z,8478
2022-10-21T09:40:54.151Z,33581
2022-10-21T09:42:10.393Z,15852
2022-10-21T09:43:26.636Z,20299
2022-10-21T09:44:42.870Z,12435
2022-10-21T09:45:58.125Z,17818
2022-10-21T09:47:14.369Z,77210
2022-10-21T09:48:30.590Z,72467
2022-10-21T09:49:46.830Z,30466
2022-10-21T09:51:03.070Z,19991
2022-10-21T09:52:19.313Z,14151
2022-10-21T09:53:35.556Z,14519
2022-10-21T09:54:51.790Z,2259
2022-10-21T09:56:08.035Z,10612
2022-10-21T09:57:24.268Z,19468
2022-10-21T09:58:40.515Z,15053
2022-10-21T09:59:56.736Z,4984
2022-10-21T10:01:12.979Z,2425
2022-10-21T10:02:28.237Z,4085
2022-10-21T10:03:44.473Z,17764
2022-10-21T10:05:00.718Z,16997
2022-10-21T10:06:16.949Z,17804
2022-10-21T10:07:33.191Z,12710
2022-10-21T10:08:49.434Z,8484
2022-10-21T10:10:05.667Z,6439
2022-10-21T10:11:21.918Z,7110
2022-10-21T10:12:38.140Z,9575
2022-10-21T10:13:54.375Z,9943
2022-10-21T10:15:10.617Z,6050
2022-10-21T10:16:26.872Z,5267
2022-10-21T10:17:43.100Z,6550
2022-10-21T10:18:58.348Z,6850
2022-10-21T10:20:14.598Z,6554
2022-10-21T10:21:30.836Z,9298
2022-10-21T10:22:47.079Z,6452
2022-10-21T10:24:03.317Z,3947
2022-10-21T10:25:19.540Z,4245
2022-10-21T10:26:35.778Z,3876
2022-10-21T10:27:52.024Z,3583
2022-10-21T10:29:08.265Z,3099
2022-10-21T10:30:24.497Z,3783
2022-10-21T10:31:40.732Z,3566
2022-10-21T10:32:56.971Z,3138
2022-10-21T10:34:13.214Z,3220
2022-10-21T10:35:28.471Z,3026
2022-10-21T10:36:44.704Z,2865
2022-10-21T10:38:00.946Z,2671
2022-10-21T10:39:17.182Z,3267
2022-10-21T10:40:33.435Z,2913
2022-10-21T10:41:49.673Z,2914
2022-10-21T10:43:05.911Z,2885
2022-10-21T10:44:22.146Z,3182
2022-10-21T10:45:38.379Z,2924
2022-10-21T10:46:54.625Z,3029
2022-10-21T10:48:10.867Z,2080
2022-10-21T10:49:27.089Z,5767
2022-10-21T10:50:43.326Z,1843
2022-10-21T10:51:58.584Z,2989
2022-10-21T10:53:14.834Z,12132
2022-10-21T10:54:31.076Z,5207
2022-10-21T10:55:47.301Z,2501
2022-10-21T10:57:03.539Z,10832
2022-10-21T10:58:19.790Z,7319
2022-10-21T10:59:36.027Z,6274
2022-10-21T11:00:52.268Z,7032
2022-10-21T11:02:08.501Z,5643
2022-10-21T11:03:24.734Z,4856
2022-10-21T11:04:40.968Z,3043
2022-10-21T11:05:57.202Z,7327
2022-10-21T11:07:13.459Z,8701
2022-10-21T11:08:28.699Z,7821
2022-10-21T11:09:44.936Z,4808
2022-10-21T11:11:01.188Z,4290
2022-10-21T11:12:17.420Z,3810
2022-10-21T11:13:33.650Z,3484
2022-10-21T11:14:49.903Z,3323
2022-10-21T11:16:05.166Z,3273
2022-10-21T11:17:21.400Z,3151
2022-10-21T11:18:37.625Z,2756
2022-10-21T11:19:53.871Z,2315
2022-10-21T11:21:10.109Z,2112
2022-10-21T11:22:26.341Z,1990
2022-10-21T11:23:42.597Z,2008
2022-10-21T11:24:58.817Z,2182
2022-10-21T11:26:15.062Z,2912
2022-10-21T11:27:31.298Z,3643
2022-10-21T11:28:47.543Z,4608
2022-10-21T11:30:03.776Z,4381
2022-10-21T11:31:20.027Z,4265
2022-10-21T11:32:35.281Z,5325
2022-10-21T11:33:51.505Z,3888
2022-10-21T11:35:07.742Z,7482
2022-10-21T11:36:23.990Z,5601
2022-10-21T11:37:40.226Z,5501
2022-10-21T11:38:56.461Z,12308
2022-10-21T11:40:12.694Z,5733
2022-10-21T11:41:28.941Z,4906
2022-10-21T11:42:45.175Z,4153
2022-10-21T11:44:01.423Z,3459
2022-10-21T11:45:17.648Z,2888
2022-10-21T11:46:33.906Z,2403
2022-10-21T11:47:50.139Z,2174
2022-10-21T11:49:05.386Z,2007
2022-10-21T11:50:21.627Z,2033
2022-10-21T11:51:37.876Z,1979
2022-10-21T11:52:54.112Z,2102
2022-10-21T11:54:10.338Z,2256
2022-10-21T11:55:26.593Z,2302
2022-10-21T11:56:42.816Z,2255
2022-10-21T11:57:59.049Z,2096
2022-10-21T11:59:15.309Z,1879
2022-10-21T12:00:31.542Z,1713
2022-10-21T12:01:47.773Z,1555
2022-10-21T12:03:04.020Z,1491
2022-10-21T12:04:20.255Z,1477
2022-10-21T12:05:35.505Z,1422
2022-10-21T12:06:51.756Z,1409
2022-10-21T12:08:07.984Z,1326
2022-10-21T12:09:24.222Z,1213
2022-10-21T12:10:40.457Z,1131
2022-10-21T12:11:56.703Z,1063
2022-10-21T12:13:12.937Z,957
2022-10-21T12:14:29.167Z,845
2022-10-21T12:15:45.410Z,799
2022-10-21T12:17:01.657Z,803
2022-10-21T12:18:17.891Z,706
2022-10-21T12:19:34.123Z,622
2022-10-21T12:20:50.373Z,577
2022-10-21T12:22:05.630Z,551
2022-10-21T12:23:21.871Z,538
2022-10-21T12:24:38.095Z,500
2022-10-21T12:25:54.345Z,494
2022-10-21T12:27:10.574Z,561
2022-10-21T12:28:26.811Z,657
2022-10-21T12:29:43.046Z,690
2022-10-21T12:30:59.297Z,670
2022-10-21T12:32:15.523Z,636
2022-10-21T12:34:48.013Z,713
2022-10-21T12:36:04.237Z,769
2022-10-21T12:37:20.493Z,808
2022-10-21T12:38:35.738Z,808
2022-10-21T12:39:51.974Z,800
2022-10-21T12:41:08.221Z,805
2022-10-21T12:42:24.445Z,800
2022-10-21T12:43:40.691Z,802
2022-10-21T12:44:56.926Z,805
2022-10-21T12:46:13.162Z,797
2022-10-21T12:47:29.401Z,776
2022-10-21T12:48:45.643Z,760
2022-10-21T12:50:01.881Z,732
2022-10-21T12:51:18.114Z,727
2022-10-21T12:52:34.360Z,702
2022-10-21T12:53:50.609Z,682
2022-10-21T12:55:05.845Z,677
2022-10-21T12:56:22.101Z,676
2022-10-21T12:57:38.325Z,672
2022-10-21T12:58:54.572Z,658
2022-10-21T13:00:10.815Z,625
2022-10-21T13:01:27.039Z,594
2022-10-21T13:02:43.291Z,598
2022-10-21T13:03:59.532Z,632
2022-10-21T13:05:15.756Z,669
2022-10-21T13:06:32.012Z,687
2022-10-21T13:07:48.239Z,695
2022-10-21T13:09:04.478Z,699
2022-10-21T13:10:20.721Z,682
2022-10-21T13:11:35.978Z,665
2022-10-21T13:12:52.207Z,666
2022-10-21T13:14:08.446Z,698
2022-10-21T13:15:24.685Z,740
2022-10-21T13:16:40.924Z,762
2022-10-21T13:17:57.171Z,751
2022-10-21T13:19:13.392Z,741
2022-10-21T13:20:29.650Z,693
2022-10-21T13:21:45.871Z,623
2022-10-21T13:23:02.126Z,567
2022-10-21T13:24:18.367Z,511
2022-10-21T13:25:34.596Z,474
2022-10-21T13:26:50.827Z,454
2022-10-21T13:28:06.082Z,436
2022-10-21T13:29:22.335Z,418
2022-10-21T13:30:38.572Z,424
2022-10-21T13:31:54.802Z,454
2022-10-21T13:33:11.038Z,494
2022-10-21T13:34:27.283Z,521
2022-10-21T13:35:43.525Z,557
2022-10-21T13:36:59.758Z,596
2022-10-21T13:38:16.005Z,611
2022-10-21T13:39:32.229Z,655
2022-10-21T13:40:48.465Z,675
2022-10-21T13:42:04.703Z,637
2022-10-21T13:43:20.943Z,615
2022-10-21T13:44:36.199Z,598
2022-10-21T13:45:52.442Z,574
2022-10-21T13:47:08.679Z,542
2022-10-21T13:48:24.931Z,513
2022-10-21T13:49:41.154Z,509
2022-10-21T13:50:57.404Z,517
2022-10-21T13:52:13.633Z,492
2022-10-21T13:53:29.881Z,479
2022-10-21T13:54:46.120Z,478
2022-10-21T13:56:02.352Z,478
2022-10-21T13:57:18.599Z,470
2022-10-21T13:58:34.822Z,483
2022-10-21T13:59:51.066Z,504
2022-10-21T14:01:06.330Z,497
2022-10-21T14:02:22.557Z,494
2022-10-21T14:03:38.796Z,504
2022-10-21T14:04:55.040Z,491
2022-10-21T14:06:11.273Z,489
2022-10-21T14:07:27.522Z,481
2022-10-21T14:08:43.761Z,484
2022-10-21T14:09:59.996Z,523
2022-10-21T14:11:16.222Z,542
2022-10-21T14:12:32.476Z,528
2022-10-21T14:13:48.699Z,521
2022-10-21T14:15:04.940Z,539
2022-10-21T14:16:21.175Z,549
2022-10-21T14:17:36.430Z,515
2022-10-21T14:18:52.680Z,536
2022-10-21T14:20:08.926Z,551
2022-10-21T14:21:25.152Z,538
2022-10-21T14:22:41.395Z,501
2022-10-21T14:23:57.620Z,602
2022-10-21T14:25:13.879Z,686
2022-10-21T14:26:30.104Z,750
2022-10-21T14:27:46.353Z,807
2022-10-21T14:29:02.578Z,963
2022-10-21T14:30:18.821Z,1135
2022-10-21T14:31:35.051Z,1043
2022-10-21T14:32:51.294Z,960
2022-10-21T14:34:06.565Z,804
2022-10-21T14:35:22.801Z,1004
2022-10-21T14:36:39.042Z,1062
2022-10-21T14:37:55.268Z,853
2022-10-21T14:39:11.512Z,937
2022-10-21T14:40:27.743Z,1043
2022-10-21T14:41:43.992Z,1152
2022-10-21T14:43:00.224Z,1036
2022-10-21T14:44:16.472Z,854
2022-10-21T14:45:32.704Z,825
2022-10-21T14:46:48.946Z,651
2022-10-21T14:48:05.176Z,496
2022-10-21T14:49:21.409Z,424
2022-10-21T14:50:36.662Z,394
2022-10-21T14:51:52.901Z,376
2022-10-21T14:53:09.159Z,380
2022-10-21T14:54:25.378Z,417
2022-10-21T14:55:41.627Z,496
2022-10-21T14:56:57.860Z,522
2022-10-21T14:58:14.108Z,463
2022-10-21T14:59:30.344Z,399
2022-10-21T15:00:46.574Z,381
2022-10-21T15:02:02.817Z,385
2022-10-21T15:03:19.051Z,373
2022-10-21T15:04:35.300Z,353
2022-10-21T15:05:51.000Z,333
2022-10-21T15:07:06.787Z,337
2022-10-21T15:08:23.028Z,335
2022-10-21T15:09:39.256Z,294
2022-10-21T15:10:55.495Z,261
2022-10-21T15:12:11.732Z,251
2022-10-21T15:13:27.978Z,255
2022-10-21T15:14:44.211Z,257
2022-10-21T15:16:00.463Z,244
2022-10-21T15:17:16.691Z,234
2022-10-21T15:18:32.935Z,231
2022-10-21T15:19:49.169Z,213
2022-10-21T15:21:05.410Z,189
2022-10-21T15:22:21.652Z,177
2022-10-21T15:23:38.015Z,154
2022-10-21T15:24:54.243Z,123
2022-10-21T15:26:10.485Z,108
2022-10-21T15:27:26.727Z,99
2022-10-21T15:28:42.960Z,90
2022-10-21T15:29:59.200Z,92
2022-10-21T15:31:14.457Z,100
2022-10-21T15:32:30.700Z,92
2022-10-21T15:33:46.930Z,105
2022-10-21T15:35:03.172Z,133
2022-10-21T15:36:19.419Z,124
2022-10-21T15:37:35.649Z,89
2022-10-21T15:38:51.900Z,63
2022-10-21T15:40:08.123Z,46
2022-10-21T15:41:24.364Z,43
2022-10-21T15:42:40.600Z,35
2022-10-21T15:43:56.843Z,30
2022-10-21T15:45:13.077Z,26
2022-10-21T15:46:29.322Z,27
2022-10-21T15:47:44.586Z,29
2022-10-21T15:49:00.813Z,29
2022-10-21T15:50:17.048Z,29
2022-10-21T15:51:33.284Z,27
2022-10-21T15:52:49.529Z,22
2022-10-21T15:54:05.781Z,18
2022-10-21T15:55:22.004Z,17
2022-10-21T15:56:38.258Z,18
2022-10-21T15:57:54.488Z,19
2022-10-21T15:59:10.723Z,15
2022-10-21T16:00:26.965Z,15
2022-10-21T16:01:43.198Z,14
2022-10-21T16:02:59.433Z,13
2022-10-21T16:04:14.702Z,12
2022-10-21T16:05:30.943Z,10
2022-10-21T16:06:47.167Z,10
2022-10-21T16:08:03.408Z,9
2022-10-21T16:09:19.640Z,9
2022-10-21T16:10:35.879Z,7
2022-10-21T16:11:52.118Z,8
2022-10-21T16:13:08.375Z,8
2022-10-21T16:14:24.603Z,8
2022-10-21T16:15:40.846Z,9
2022-10-21T16:16:57.083Z,6
2022-10-21T16:18:13.322Z,7
2022-10-21T16:19:29.557Z,8
2022-10-21T16:20:44.809Z,4
2022-10-21T16:22:01.051Z,3
2022-10-21T16:23:17.288Z,3
2022-10-21T16:24:33.535Z,2
2022-10-21T16:25:49.759Z,2
2022-10-21T16:27:06.000Z,2
2022-10-21T16:28:22.242Z,2
2022-10-21T16:29:38.485Z,1
2022-10-21T16:30:54.731Z,1
2022-10-21T16:32:10.969Z,1
2022-10-21T16:33:27.259Z,0
2022-10-21T16:34:43.543Z,0
2022-10-21T16:35:59.845Z,0
2022-10-21T16:37:15.142Z,0
2022-10-21T16:38:31.442Z,0
2022-10-21T16:39:47.740Z,0
2022-10-21T16:41:04.022Z,0
2022-10-21T16:42:20.320Z,0
2022-10-21T16:43:36.616Z,0
2022-10-21T16:44:52.899Z,0
2022-10-21T16:46:09.200Z,0
2022-10-21T16:47:25.487Z,0
2022-10-21T16:48:41.778Z,0
2022-10-21T16:49:58.070Z,0
2022-10-21T16:51:14.365Z,0
2022-10-21T16:52:30.653Z,0
2022-10-21T16:53:45.959Z,0
2022-10-21T16:55:02.261Z,0
2022-10-21T16:56:18.551Z,0
2022-10-21T16:57:34.843Z,0
2022-10-21T16:58:51.143Z,0
2022-10-21T17:00:07.435Z,0
2022-10-21T17:01:23.726Z,0
2022-10-21T17:02:40.013Z,0
2022-10-21T17:03:56.307Z,0
2022-10-21T17:05:12.601Z,0
2022-10-21T17:06:28.888Z,0
2022-10-21T17:07:45.183Z,0
2022-10-21T17:09:01.477Z,0
2022-10-21T17:10:16.781Z,0
2022-10-21T17:11:33.073Z,0
2022-10-21T17:12:49.366Z,0
2022-10-21T17:14:05.666Z,0
2022-10-21T17:15:21.947Z,0
2022-10-21T17:16:38.254Z,0
2022-10-21T17:17:54.547Z,0
2022-10-21T17:19:10.828Z,0
2022-10-21T17:20:27.121Z,0
2022-10-21T17:21:43.411Z,0
2022-10-21T17:22:59.698Z,0
2022-10-21T17:24:15.999Z,0
2022-10-21T17:25:32.289Z,0
2022-10-21T17:26:47.590Z,0
2022-10-21T17:28:03.883Z,0
2022-10-21T17:29:20.190Z,0
2022-10-21T17:30:36.472Z,0
2022-10-21T17:31:52.779Z,0
2022-10-21T17:33:09.063Z,0
2022-10-21T17:34:25.359Z,0
2022-10-21T17:35:41.647Z,0
2022-10-21T17:36:57.941Z,0
2022-10-21T17:38:14.225Z,0
2022-10-21T17:39:30.532Z,0
2022-10-21T17:40:46.815Z,0
2022-10-21T17:43:19.410Z,0
2022-10-21T17:44:34.714Z,0
2022-10-21T17:45:51.008Z,0
2022-10-21T17:47:07.288Z,0
2022-10-21T17:48:23.596Z,0
2022-10-21T17:49:39.877Z,0
2022-10-21T17:50:56.171Z,0